createdAt,value
2017-08-13T00:00:12.507Z,1012.86
2017-08-13T00:01:12.312Z,1012.87
2017-08-13T00:02:12.346Z,1012.9
2017-08-13T00:03:12.814Z,1012.9
2017-08-13T00:04:13.302Z,1012.93
2017-08-13T00:05:13.336Z,1012.92
2017-08-13T00:06:13.515Z,1012.89
2017-08-13T00:07:13.551Z,1012.9
2017-08-13T00:08:14.043Z,1012.9
2017-08-13T00:09:14.066Z,1012.91
2017-08-13T00:10:14.100Z,1012.86
2017-08-13T00:11:14.143Z,1012.82
2017-08-13T00:12:14.169Z,1012.78
2017-08-13T00:13:14.200Z,1012.85
2017-08-13T00:14:14.233Z,1012.73
2017-08-13T00:15:14.266Z,1012.77
2017-08-13T00:16:14.299Z,1012.77
2017-08-13T00:17:14.464Z,1012.78
2017-08-13T00:18:14.505Z,1012.76
2017-08-13T00:19:14.529Z,1012.68
2017-08-13T00:20:14.566Z,1012.68
2017-08-13T00:21:14.599Z,1012.64
2017-08-13T00:22:14.633Z,1012.62
2017-08-13T00:23:14.664Z,1012.65
2017-08-13T00:24:14.697Z,1012.66
2017-08-13T00:25:14.743Z,1012.61
2017-08-13T00:26:15.218Z,1012.62
2017-08-13T00:27:15.255Z,1012.61
2017-08-13T00:28:15.285Z,1012.61
2017-08-13T00:29:15.326Z,1012.61
2017-08-13T00:30:15.356Z,1012.6
2017-08-13T00:31:15.817Z,1012.58
2017-08-13T00:32:15.852Z,1012.58
2017-08-13T00:33:15.887Z,1012.65
2017-08-13T00:34:15.917Z,1012.6
2017-08-13T00:35:15.951Z,1012.63
2017-08-13T00:36:15.986Z,1012.59
2017-08-13T00:37:44.142Z,1012.64
2017-08-13T00:38:18.495Z,1012.63
2017-08-13T00:39:18.528Z,1012.62
2017-08-13T00:40:18.570Z,1012.63
2017-08-13T00:41:18.602Z,1012.63
2017-08-13T00:42:19.091Z,1012.6
2017-08-13T00:43:19.240Z,1012.58
2017-08-13T00:44:19.272Z,1012.62
2017-08-13T00:45:19.311Z,1012.64
2017-08-13T00:46:19.339Z,1012.65
2017-08-13T00:47:19.374Z,1012.71
2017-08-13T00:48:19.407Z,1012.69
2017-08-13T00:49:19.441Z,1012.65
2017-08-13T00:50:19.481Z,1012.7
2017-08-13T00:51:19.511Z,1012.72
2017-08-13T00:52:19.541Z,1012.66
2017-08-13T00:53:19.578Z,1012.68
2017-08-13T00:54:19.607Z,1012.7
2017-08-13T00:55:19.641Z,1012.72
2017-08-13T00:56:19.679Z,1012.69
2017-08-13T00:57:19.710Z,1012.69
2017-08-13T00:58:19.744Z,1012.69
2017-08-13T00:59:19.775Z,1012.73
2017-08-13T01:00:19.809Z,1012.71
2017-08-13T01:01:19.838Z,1012.7
2017-08-13T01:02:19.877Z,1012.72
2017-08-13T01:03:19.907Z,1012.7
2017-08-13T01:04:19.939Z,1012.73
2017-08-13T01:05:19.976Z,1012.8
2017-08-13T01:06:20.010Z,1012.79
2017-08-13T01:07:20.185Z,1012.75
2017-08-13T01:08:20.071Z,1012.79
2017-08-13T01:09:20.106Z,1012.77
2017-08-13T01:10:20.142Z,1012.79
2017-08-13T01:11:20.173Z,1012.82
2017-08-13T01:12:20.209Z,1012.78
2017-08-13T01:13:20.241Z,1012.77
2017-08-13T01:14:20.707Z,1012.82
2017-08-13T01:15:20.733Z,1012.81
2017-08-13T01:16:20.766Z,1012.86
2017-08-13T01:17:20.797Z,1012.87
2017-08-13T01:18:21.270Z,1012.87
2017-08-13T01:19:21.301Z,1012.85
2017-08-13T01:20:21.333Z,1012.84
2017-08-13T01:21:21.369Z,1012.85
2017-08-13T01:22:21.405Z,1012.83
2017-08-13T01:23:21.433Z,1012.83
2017-08-13T01:24:21.909Z,1012.85
2017-08-13T01:25:21.946Z,1012.87
2017-08-13T01:26:22.419Z,1012.85
2017-08-13T01:27:22.457Z,1012.88
2017-08-13T01:28:22.922Z,1012.83
2017-08-13T01:29:22.962Z,1012.83
2017-08-13T01:30:22.992Z,1012.85
2017-08-13T01:31:23.021Z,1012.86
2017-08-13T01:32:23.059Z,1012.9
2017-08-13T01:33:23.087Z,1012.86
2017-08-13T01:34:23.122Z,1012.88
2017-08-13T01:35:23.157Z,1012.88
2017-08-13T01:36:23.185Z,1012.94
2017-08-13T01:37:23.226Z,1012.86
2017-08-13T01:38:23.254Z,1012.9
2017-08-13T01:39:23.283Z,1012.89
2017-08-13T01:40:23.314Z,1012.9
2017-08-13T01:41:23.350Z,1012.99
2017-08-13T01:42:23.385Z,1012.97
2017-08-13T01:43:23.418Z,1012.97
2017-08-13T01:44:23.452Z,1012.98
2017-08-13T01:45:23.487Z,1012.98
2017-08-13T01:46:23.965Z,1012.97
2017-08-13T01:47:23.993Z,1013.01
2017-08-13T01:48:24.477Z,1012.96
2017-08-13T01:49:24.493Z,1013
2017-08-13T01:50:24.630Z,1013.04
2017-08-13T01:51:24.567Z,1013
2017-08-13T01:52:24.599Z,1012.96
2017-08-13T01:53:24.758Z,1012.99
2017-08-13T01:54:24.786Z,1013.02
2017-08-13T01:55:24.819Z,1013
2017-08-13T01:56:24.856Z,1013
2017-08-13T01:57:24.887Z,1013.03
2017-08-13T01:58:24.921Z,1012.99
2017-08-13T01:59:24.950Z,1012.99
2017-08-13T02:00:24.988Z,1013
2017-08-13T02:01:25.038Z,1013
2017-08-13T02:02:25.268Z,1013.06
2017-08-13T02:03:25.170Z,1013.02
2017-08-13T02:04:25.195Z,1013.02
2017-08-13T02:05:25.231Z,1013.05
2017-08-13T02:06:25.278Z,1013.05
2017-08-13T02:07:25.301Z,1013.06
2017-08-13T02:08:25.331Z,1013.09
2017-08-13T02:09:25.368Z,1013.11
2017-08-13T02:10:25.401Z,1013.13
2017-08-13T02:11:25.435Z,1013.12
2017-08-13T02:12:25.469Z,1013.12
2017-08-13T02:13:25.498Z,1013.09
2017-08-13T02:14:25.537Z,1013.17
2017-08-13T02:15:25.566Z,1013.11
2017-08-13T02:16:25.595Z,1013.16
2017-08-13T02:17:26.052Z,1013.24
2017-08-13T02:18:26.097Z,1013.19
2017-08-13T02:19:26.116Z,1013.18
2017-08-13T02:20:26.150Z,1013.23
2017-08-13T02:21:26.187Z,1013.22
2017-08-13T02:22:26.220Z,1013.26
2017-08-13T02:23:26.273Z,1013.26
2017-08-13T02:24:26.283Z,1013.28
2017-08-13T02:25:26.318Z,1013.27
2017-08-13T02:26:26.349Z,1013.32
2017-08-13T02:27:26.382Z,1013.31
2017-08-13T02:28:26.418Z,1013.3
2017-08-13T02:29:26.450Z,1013.3
2017-08-13T02:30:26.484Z,1013.29
2017-08-13T02:31:26.512Z,1013.31
2017-08-13T02:32:26.549Z,1013.32
2017-08-13T02:33:26.585Z,1013.29
2017-08-13T02:34:26.611Z,1013.3
2017-08-13T02:35:26.643Z,1013.29
2017-08-13T02:36:26.677Z,1013.25
2017-08-13T02:37:26.705Z,1013.34
2017-08-13T02:38:26.738Z,1013.27
2017-08-13T02:39:26.781Z,1013.32
2017-08-13T02:40:26.812Z,1013.29
2017-08-13T02:41:26.841Z,1013.33
2017-08-13T02:42:26.875Z,1013.34
2017-08-13T02:43:26.905Z,1013.33
2017-08-13T02:44:26.943Z,1013.32
2017-08-13T02:45:26.976Z,1013.4
2017-08-13T02:46:27.010Z,1013.4
2017-08-13T02:47:27.503Z,1013.46
2017-08-13T02:48:27.533Z,1013.49
2017-08-13T02:49:27.559Z,1013.5
2017-08-13T02:50:27.597Z,1013.5
2017-08-13T02:51:28.060Z,1013.48
2017-08-13T02:52:28.577Z,1013.55
2017-08-13T02:53:29.061Z,1013.5
2017-08-13T02:54:29.097Z,1013.51
2017-08-13T02:55:29.131Z,1013.51
2017-08-13T02:56:29.159Z,1013.52
2017-08-13T02:57:29.193Z,1013.49
2017-08-13T02:58:29.228Z,1013.54
2017-08-13T02:59:29.257Z,1013.59
2017-08-13T03:00:29.296Z,1013.59
2017-08-13T03:01:29.330Z,1013.65
2017-08-13T03:02:29.356Z,1013.67
2017-08-13T03:03:29.384Z,1013.68
2017-08-13T03:04:29.420Z,1013.68
2017-08-13T03:05:29.455Z,1013.7
2017-08-13T03:06:29.496Z,1013.68
2017-08-13T03:07:29.518Z,1013.71
2017-08-13T03:08:29.553Z,1013.69
2017-08-13T03:09:30.010Z,1013.65
2017-08-13T03:10:30.040Z,1013.66
2017-08-13T03:11:30.068Z,1013.63
2017-08-13T03:12:30.111Z,1013.68
2017-08-13T03:13:30.140Z,1013.7
2017-08-13T03:14:30.173Z,1013.68
2017-08-13T03:15:30.202Z,1013.71
2017-08-13T03:16:30.244Z,1013.7
2017-08-13T03:17:30.401Z,1013.7
2017-08-13T03:18:30.429Z,1013.74
2017-08-13T03:19:30.466Z,1013.67
2017-08-13T03:20:30.935Z,1013.67
2017-08-13T03:21:31.415Z,1013.7
2017-08-13T03:22:31.446Z,1013.69
2017-08-13T03:23:31.482Z,1013.72
2017-08-13T03:24:31.518Z,1013.73
2017-08-13T03:25:31.549Z,1013.78
2017-08-13T03:26:31.574Z,1013.77
2017-08-13T03:27:31.610Z,1013.75
2017-08-13T03:28:31.645Z,1013.82
2017-08-13T03:29:31.687Z,1013.82
2017-08-13T03:30:31.707Z,1013.83
2017-08-13T03:31:31.740Z,1013.86
2017-08-13T03:32:31.772Z,1013.85
2017-08-13T03:33:31.809Z,1013.84
2017-08-13T03:34:32.303Z,1013.9
2017-08-13T03:35:32.330Z,1013.91
2017-08-13T03:36:32.359Z,1013.93
2017-08-13T03:37:32.394Z,1013.91
2017-08-13T03:38:32.429Z,1013.86
2017-08-13T03:39:32.461Z,1013.9
2017-08-13T03:40:32.491Z,1013.9
2017-08-13T03:41:32.525Z,1013.87
2017-08-13T03:42:32.558Z,1013.85
2017-08-13T03:43:32.590Z,1013.9
2017-08-13T03:44:32.618Z,1013.94
2017-08-13T03:45:32.654Z,1013.9
2017-08-13T03:46:32.689Z,1013.87
2017-08-13T03:47:32.719Z,1013.86
2017-08-13T03:48:32.752Z,1013.84
2017-08-13T03:49:32.779Z,1013.8
2017-08-13T03:50:32.817Z,1013.82
2017-08-13T03:51:32.848Z,1013.79
2017-08-13T03:52:33.311Z,1013.8
2017-08-13T03:53:33.347Z,1013.77
2017-08-13T03:54:33.379Z,1013.78
2017-08-13T03:55:33.530Z,1013.8
2017-08-13T03:56:33.568Z,1013.77
2017-08-13T03:57:33.599Z,1013.78
2017-08-13T03:58:33.628Z,1013.76
2017-08-13T03:59:33.661Z,1013.68
2017-08-13T04:00:33.696Z,1013.7
2017-08-13T04:01:33.999Z,1013.74
2017-08-13T04:02:33.762Z,1013.7
2017-08-13T04:03:33.799Z,1013.73
2017-08-13T04:04:33.824Z,1013.79
2017-08-13T04:05:33.859Z,1013.79
2017-08-13T04:06:33.893Z,1013.81
2017-08-13T04:07:33.921Z,1013.79
2017-08-13T04:08:33.955Z,1013.84
2017-08-13T04:09:33.996Z,1013.71
2017-08-13T04:10:34.020Z,1013.75
2017-08-13T04:11:34.056Z,1013.75
2017-08-13T04:12:34.090Z,1013.75
2017-08-13T04:13:34.124Z,1013.81
2017-08-13T04:14:34.153Z,1013.83
2017-08-13T04:15:34.185Z,1013.8
2017-08-13T04:16:34.223Z,1013.85
2017-08-13T04:17:34.254Z,1013.87
2017-08-13T04:18:34.289Z,1013.9
2017-08-13T04:19:34.317Z,1013.9
2017-08-13T04:20:34.355Z,1013.92
2017-08-13T04:21:34.382Z,1013.95
2017-08-13T04:22:34.421Z,1013.96
2017-08-13T04:23:34.457Z,1013.99
2017-08-13T04:24:34.483Z,1014.03
2017-08-13T04:25:34.522Z,1014.06
2017-08-13T04:26:35.005Z,1014.07
2017-08-13T04:27:35.032Z,1014.11
2017-08-13T04:28:35.063Z,1014.14
2017-08-13T04:29:35.114Z,1014.11
2017-08-13T04:30:35.131Z,1014.16
2017-08-13T04:31:35.601Z,1014.2
2017-08-13T04:32:35.630Z,1014.17
2017-08-13T04:33:35.662Z,1014.2
2017-08-13T04:34:35.700Z,1014.23
2017-08-13T04:35:35.729Z,1014.21
2017-08-13T04:36:35.761Z,1014.22
2017-08-13T04:37:35.794Z,1014.23
2017-08-13T04:38:35.828Z,1014.26
2017-08-13T04:39:35.862Z,1014.25
2017-08-13T04:40:35.894Z,1014.29
2017-08-13T04:41:35.930Z,1014.27
2017-08-13T04:42:35.960Z,1014.33
2017-08-13T04:43:35.995Z,1014.31
2017-08-13T04:44:36.028Z,1014.32
2017-08-13T04:45:36.059Z,1014.35
2017-08-13T04:46:36.095Z,1014.39
2017-08-13T04:47:36.128Z,1014.44
2017-08-13T04:48:36.621Z,1014.48
2017-08-13T04:49:36.650Z,1014.45
2017-08-13T04:50:36.684Z,1014.48
2017-08-13T04:51:36.722Z,1014.5
2017-08-13T04:52:36.750Z,1014.48
2017-08-13T04:53:36.781Z,1014.45
2017-08-13T04:54:36.816Z,1014.49
2017-08-13T04:55:36.855Z,1014.46
2017-08-13T04:56:36.884Z,1014.46
2017-08-13T04:57:36.917Z,1014.46
2017-08-13T04:58:36.952Z,1014.47
2017-08-13T04:59:36.988Z,1014.45
2017-08-13T05:00:37.186Z,1014.45
2017-08-13T05:01:37.218Z,1014.45
2017-08-13T05:02:37.253Z,1014.43
2017-08-13T05:03:37.284Z,1014.45
2017-08-13T05:04:37.320Z,1014.44
2017-08-13T05:05:37.357Z,1014.49
2017-08-13T05:06:37.386Z,1014.42
2017-08-13T05:07:37.419Z,1014.44
2017-08-13T05:08:37.458Z,1014.45
2017-08-13T05:09:37.490Z,1014.47
2017-08-13T05:10:37.524Z,1014.48
2017-08-13T05:11:37.560Z,1014.52
2017-08-13T05:12:37.585Z,1014.5
2017-08-13T05:13:37.622Z,1014.48
2017-08-13T05:14:37.655Z,1014.49
2017-08-13T05:15:37.688Z,1014.51
2017-08-13T05:16:38.140Z,1014.49
2017-08-13T05:17:38.173Z,1014.52
2017-08-13T05:18:38.209Z,1014.47
2017-08-13T05:19:38.244Z,1014.46
2017-08-13T05:20:38.273Z,1014.46
2017-08-13T05:21:38.312Z,1014.47
2017-08-13T05:22:38.344Z,1014.47
2017-08-13T05:23:38.376Z,1014.49
2017-08-13T05:24:38.422Z,1014.53
2017-08-13T05:25:38.439Z,1014.51
2017-08-13T05:26:38.480Z,1014.51
2017-08-13T05:27:38.513Z,1014.54
2017-08-13T05:28:38.543Z,1014.54
2017-08-13T05:29:38.582Z,1014.54
2017-08-13T05:30:38.617Z,1014.55
2017-08-13T05:31:38.647Z,1014.58
2017-08-13T05:32:38.686Z,1014.62
2017-08-13T05:33:38.717Z,1014.61
2017-08-13T05:34:38.753Z,1014.55
2017-08-13T05:35:38.782Z,1014.59
2017-08-13T05:36:38.817Z,1014.57
2017-08-13T05:37:39.325Z,1014.58
2017-08-13T05:38:39.358Z,1014.53
2017-08-13T05:39:39.391Z,1014.54
2017-08-13T05:40:39.424Z,1014.52
2017-08-13T05:41:39.456Z,1014.6
2017-08-13T05:42:39.904Z,1014.54
2017-08-13T05:43:39.934Z,1014.53
2017-08-13T05:44:39.965Z,1014.56
2017-08-13T05:45:40.004Z,1014.54
2017-08-13T05:46:40.036Z,1014.55
2017-08-13T05:47:40.067Z,1014.52
2017-08-13T05:48:40.107Z,1014.55
2017-08-13T05:49:40.137Z,1014.57
2017-08-13T05:50:40.171Z,1014.56
2017-08-13T05:51:40.212Z,1014.58
2017-08-13T05:52:40.240Z,1014.57
2017-08-13T05:53:40.274Z,1014.63
2017-08-13T05:54:40.311Z,1014.7
2017-08-13T05:55:40.342Z,1014.69
2017-08-13T05:56:40.380Z,1014.75
2017-08-13T05:57:40.413Z,1014.76
2017-08-13T05:58:40.452Z,1014.82
2017-08-13T05:59:40.483Z,1014.88
2017-08-13T06:00:40.520Z,1014.88
2017-08-13T06:01:40.554Z,1014.87
2017-08-13T06:02:40.585Z,1014.86
2017-08-13T06:03:40.619Z,1014.92
2017-08-13T06:04:40.654Z,1014.92
2017-08-13T06:05:40.686Z,1014.9
2017-08-13T06:06:40.724Z,1014.96
2017-08-13T06:07:40.763Z,1014.97
2017-08-13T06:08:40.794Z,1014.94
2017-08-13T06:09:40.829Z,1014.99
2017-08-13T06:10:40.865Z,1014.97
2017-08-13T06:11:40.899Z,1014.98
2017-08-13T06:12:40.939Z,1014.95
2017-08-13T06:13:40.968Z,1014.95
2017-08-13T06:14:41.009Z,1014.99
2017-08-13T06:15:41.036Z,1015
2017-08-13T06:16:41.073Z,1015.02
2017-08-13T06:17:41.114Z,1015.05
2017-08-13T06:18:41.145Z,1015.04
2017-08-13T06:19:41.185Z,1015.04
2017-08-13T06:20:41.218Z,1015.1
2017-08-13T06:21:41.275Z,1015.1
2017-08-13T06:22:41.286Z,1015.04
2017-08-13T06:23:41.324Z,1015.04
2017-08-13T06:24:41.371Z,1015.09
2017-08-13T06:25:41.388Z,1015.06
2017-08-13T06:26:41.434Z,1015.02
2017-08-13T06:27:41.469Z,1015.04
2017-08-13T06:28:41.512Z,1015.2
2017-08-13T06:29:41.544Z,1015.24
2017-08-13T06:30:41.582Z,1015.15
2017-08-13T06:31:41.614Z,1015.11
2017-08-13T06:32:41.653Z,1015.11
2017-08-13T06:33:41.711Z,1015.12
2017-08-13T06:34:41.722Z,1015.09
2017-08-13T06:35:41.768Z,1015.09
2017-08-13T06:36:41.801Z,1015.14
2017-08-13T06:37:41.837Z,1015.14
2017-08-13T06:38:41.874Z,1015.17
2017-08-13T06:39:41.913Z,1015.21
2017-08-13T06:40:41.946Z,1015.22
2017-08-13T06:41:41.988Z,1015.23
2017-08-13T06:42:42.023Z,1015.26
2017-08-13T06:43:42.059Z,1015.37
2017-08-13T06:44:42.097Z,1015.42
2017-08-13T06:45:42.139Z,1015.39
2017-08-13T06:46:42.167Z,1015.54
2017-08-13T06:47:42.214Z,1015.37
2017-08-13T06:48:42.244Z,1015.32
2017-08-13T06:49:42.283Z,1015.26
2017-08-13T06:50:42.323Z,1015.29
2017-08-13T06:51:42.364Z,1015.53
2017-08-13T06:52:42.397Z,1015.42
2017-08-13T06:53:42.872Z,1015.52
2017-08-13T06:54:42.915Z,1015.5
2017-08-13T06:55:42.946Z,1015.41
2017-08-13T06:56:42.987Z,1015.32
2017-08-13T06:57:43.026Z,1015.47
2017-08-13T06:58:43.065Z,1015.61
2017-08-13T06:59:43.104Z,1015.21
2017-08-13T07:00:43.142Z,1015.18
2017-08-13T07:01:43.179Z,1015.23
2017-08-13T07:02:43.222Z,1015.27
2017-08-13T07:03:43.688Z,1015.76
2017-08-13T07:04:43.727Z,1015.83
2017-08-13T07:05:43.767Z,1015.76
2017-08-13T07:06:43.800Z,1015.33
2017-08-13T07:07:43.844Z,1015.44
2017-08-13T07:08:43.883Z,1015.82
2017-08-13T07:09:43.925Z,1015.36
2017-08-13T07:10:43.961Z,1015.83
2017-08-13T07:11:44.008Z,1015.62
2017-08-13T07:12:44.041Z,1015.29
2017-08-13T07:13:44.081Z,1015.68
2017-08-13T07:14:44.123Z,1015.69
2017-08-13T07:15:44.592Z,1015.67
2017-08-13T07:16:44.638Z,1015.57
2017-08-13T07:17:44.677Z,1015.64
2017-08-13T07:18:44.705Z,1015.65
2017-08-13T07:19:44.747Z,1015.63
2017-08-13T07:20:44.792Z,1015.7
2017-08-13T07:21:44.828Z,1015.65
2017-08-13T07:22:44.872Z,1015.7
2017-08-13T07:23:44.913Z,1015.67
2017-08-13T07:24:44.949Z,1015.7
2017-08-13T07:25:44.993Z,1015.38
2017-08-13T07:26:45.036Z,1015.42
2017-08-13T07:27:45.506Z,1015.47
2017-08-13T07:28:45.547Z,1015.45
2017-08-13T07:29:45.590Z,1015.41
2017-08-13T07:30:45.634Z,1015.41
2017-08-13T07:31:45.669Z,1015.43
2017-08-13T07:32:45.707Z,1015.78
2017-08-13T07:33:46.202Z,1015.47
2017-08-13T07:34:46.690Z,1015.44
2017-08-13T07:35:46.732Z,1015.43
2017-08-13T07:36:46.770Z,1015.45
2017-08-13T07:37:46.810Z,1015.49
2017-08-13T07:38:46.847Z,1015.85
2017-08-13T07:39:46.890Z,1015.9
2017-08-13T07:40:46.931Z,1015.89
2017-08-13T07:41:47.428Z,1015.88
2017-08-13T07:42:47.470Z,1015.86
2017-08-13T07:43:47.506Z,1015.59
2017-08-13T07:44:47.545Z,1015.49
2017-08-13T07:45:47.593Z,1015.82
2017-08-13T07:46:47.632Z,1015.96
2017-08-13T07:47:47.673Z,1015.99
2017-08-13T07:48:47.711Z,1015.98
2017-08-13T07:49:47.751Z,1015.63
2017-08-13T07:50:47.794Z,1015.53
2017-08-13T07:51:47.839Z,1015.64
2017-08-13T07:52:47.879Z,1016
2017-08-13T07:53:48.392Z,1016.04
2017-08-13T07:54:48.433Z,1015.57
2017-08-13T07:55:48.475Z,1015.58
2017-08-13T07:56:48.523Z,1015.62
2017-08-13T07:57:49.008Z,1015.62
2017-08-13T07:58:49.048Z,1015.62
2017-08-13T07:59:49.088Z,1015.67
2017-08-13T08:00:49.138Z,1015.87
2017-08-13T08:01:49.176Z,1015.74
2017-08-13T08:02:49.213Z,1016.07
2017-08-13T08:03:49.696Z,1015.99
2017-08-13T08:04:49.737Z,1015.91
2017-08-13T08:05:49.778Z,1016.06
2017-08-13T08:06:49.819Z,1015.71
2017-08-13T08:07:49.864Z,1015.71
2017-08-13T08:08:49.907Z,1016.02
2017-08-13T08:09:49.942Z,1015.98
2017-08-13T08:10:49.985Z,1016.16
2017-08-13T08:11:50.027Z,1015.81
2017-08-13T08:12:50.060Z,1015.79
2017-08-13T08:13:50.218Z,1016.35
2017-08-13T08:14:50.257Z,1016.26
2017-08-13T08:15:50.299Z,1015.79
2017-08-13T08:16:50.344Z,1015.73
2017-08-13T08:17:50.388Z,1015.72
2017-08-13T08:18:50.893Z,1015.75
2017-08-13T08:19:51.398Z,1015.72
2017-08-13T08:20:51.441Z,1015.78
2017-08-13T08:21:51.483Z,1015.78
2017-08-13T08:22:51.520Z,1015.84
2017-08-13T08:23:51.684Z,1015.85
2017-08-13T08:24:51.723Z,1015.9
2017-08-13T08:25:51.763Z,1015.89
2017-08-13T08:26:51.800Z,1015.84
2017-08-13T08:27:51.846Z,1015.85
2017-08-13T08:28:51.886Z,1015.92
2017-08-13T08:29:51.920Z,1015.86
2017-08-13T08:30:51.962Z,1015.91
2017-08-13T08:31:52.004Z,1016.81
2017-08-13T08:32:52.043Z,1016.62
2017-08-13T08:33:52.083Z,1016.52
2017-08-13T08:34:52.122Z,1016.57
2017-08-13T08:35:52.162Z,1016.64
2017-08-13T08:36:52.200Z,1016.68
2017-08-13T08:37:52.247Z,1016.75
2017-08-13T08:38:52.282Z,1016.79
2017-08-13T08:39:52.322Z,1016.77
2017-08-13T08:40:52.367Z,1016.72
2017-08-13T08:41:52.406Z,1016.68
2017-08-13T08:42:52.447Z,1016.78
2017-08-13T08:43:52.492Z,1016.74
2017-08-13T08:44:52.530Z,1016.16
2017-08-13T08:45:52.577Z,1016.61
2017-08-13T08:46:52.625Z,1015.99
2017-08-13T08:47:52.663Z,1015.87
2017-08-13T08:48:52.708Z,1016.94
2017-08-13T08:49:52.878Z,1016.92
2017-08-13T08:50:53.371Z,1016.79
2017-08-13T08:51:53.414Z,1016.11
2017-08-13T08:52:53.456Z,1015.79
2017-08-13T08:53:53.507Z,1016.7
2017-08-13T08:54:53.544Z,1016.13
2017-08-13T08:55:53.585Z,1016.99
2017-08-13T08:56:53.643Z,1016.87
2017-08-13T08:57:53.675Z,1016.88
2017-08-13T08:58:53.722Z,1016.76
2017-08-13T08:59:54.435Z,1016.83
2017-08-13T09:00:54.480Z,1016.83
2017-08-13T09:01:54.523Z,1016.86
2017-08-13T09:02:55.038Z,1016.83
2017-08-13T09:03:55.071Z,1016.73
2017-08-13T09:04:55.123Z,1016.71
2017-08-13T09:05:55.172Z,1016.67
2017-08-13T09:06:55.213Z,1016.72
2017-08-13T09:07:55.259Z,1016.71
2017-08-13T09:08:55.311Z,1016.69
2017-08-13T09:09:55.787Z,1016.8
2017-08-13T09:10:55.832Z,1016.86
2017-08-13T09:11:55.882Z,1016.88
2017-08-13T09:12:55.924Z,1016.95
2017-08-13T09:13:55.972Z,1016.91
2017-08-13T09:14:56.017Z,1016.93
2017-08-13T09:15:56.070Z,1016.97
2017-08-13T09:16:56.113Z,1015.93
2017-08-13T09:17:56.163Z,1016
2017-08-13T09:18:56.205Z,1016.76
2017-08-13T09:19:56.253Z,1017.11
2017-08-13T09:20:56.301Z,1017.16
2017-08-13T09:21:56.350Z,1017.12
2017-08-13T09:22:56.393Z,1017.15
2017-08-13T09:23:56.440Z,1016.34
2017-08-13T09:24:56.488Z,1017.02
2017-08-13T09:25:56.548Z,1017.16
2017-08-13T09:26:56.747Z,1017.19
2017-08-13T09:27:57.010Z,1017.18
2017-08-13T09:28:57.054Z,1017.15
2017-08-13T09:29:57.103Z,1016.16
2017-08-13T09:30:57.153Z,1015.98
2017-08-13T09:31:57.195Z,1016.08
2017-08-13T09:32:57.249Z,1016.02
2017-08-13T09:33:57.288Z,1016.16
2017-08-13T09:34:57.484Z,1016.13
2017-08-13T09:35:57.527Z,1016.23
2017-08-13T09:36:57.580Z,1017.41
2017-08-13T09:37:57.616Z,1017.61
2017-08-13T09:38:57.664Z,1016.38
2017-08-13T09:39:57.712Z,1016.4
2017-08-13T09:40:57.756Z,1016.4
2017-08-13T09:41:57.796Z,1016.55
2017-08-13T09:42:57.848Z,1016.49
2017-08-13T09:43:57.889Z,1016.44
2017-08-13T09:44:58.419Z,1017.64
2017-08-13T09:45:58.464Z,1017.25
2017-08-13T09:46:58.498Z,1016.64
2017-08-13T09:47:58.551Z,1017.2
2017-08-13T09:48:58.600Z,1017.29
2017-08-13T09:49:58.638Z,1017.49
2017-08-13T09:50:58.682Z,1016.34
2017-08-13T09:51:58.725Z,1017.49
2017-08-13T09:52:58.774Z,1017.55
2017-08-13T09:53:58.812Z,1016.29
2017-08-13T09:54:59.006Z,1016.18
2017-08-13T09:55:59.052Z,1016.2
2017-08-13T09:56:59.097Z,1016.21
2017-08-13T09:57:59.137Z,1016.31
2017-08-13T09:58:59.186Z,1016.41
2017-08-13T09:59:59.234Z,1016.88
2017-08-13T10:00:59.270Z,1017.02
2017-08-13T10:01:59.832Z,1016.49
2017-08-13T10:02:59.826Z,1016.46
2017-08-13T10:03:59.870Z,1016.83
2017-08-13T10:04:59.910Z,1016.7
2017-08-13T10:05:59.948Z,1016.65
2017-08-13T10:07:00.002Z,1016.47
2017-08-13T10:08:00.039Z,1016.53
2017-08-13T10:09:00.085Z,1016.72
2017-08-13T10:10:00.126Z,1018.03
2017-08-13T10:11:00.172Z,1016.77
2017-08-13T10:12:00.211Z,1018.05
2017-08-13T10:13:00.252Z,1017.42
2017-08-13T10:14:00.298Z,1017.53
2017-08-13T10:15:00.803Z,1016.63
2017-08-13T10:16:00.847Z,1016.63
2017-08-13T10:17:01.364Z,1016.72
2017-08-13T10:18:01.907Z,1017.04
2017-08-13T10:19:01.947Z,1016.66
2017-08-13T10:20:02.092Z,1017.02
2017-08-13T10:21:02.043Z,1017.34
2017-08-13T10:22:02.618Z,1018.09
2017-08-13T10:23:02.665Z,1016.61
2017-08-13T10:24:02.700Z,1016.57
2017-08-13T10:25:03.202Z,1016.6
2017-08-13T10:26:03.238Z,1016.53
2017-08-13T10:27:03.284Z,1016.48
2017-08-13T10:28:03.325Z,1016.55
2017-08-13T10:29:03.370Z,1016.78
2017-08-13T10:30:03.409Z,1016.61
2017-08-13T10:31:03.467Z,1016.65
2017-08-13T10:32:03.496Z,1016.53
2017-08-13T10:33:03.537Z,1016.93
2017-08-13T10:34:03.576Z,1016.62
2017-08-13T10:35:03.619Z,1016.7
2017-08-13T10:36:03.679Z,1016.5
2017-08-13T10:37:03.699Z,1017.42
2017-08-13T10:38:03.896Z,1017.73
2017-08-13T10:39:04.013Z,1017.89
2017-08-13T10:40:04.022Z,1017.24
2017-08-13T10:41:04.588Z,1017.51
2017-08-13T10:42:04.632Z,1017.86
2017-08-13T10:43:04.668Z,1017.33
2017-08-13T10:44:04.709Z,1018.69
2017-08-13T10:45:04.790Z,1016.89
2017-08-13T10:46:04.795Z,1016.45
2017-08-13T10:47:04.838Z,1016.44
2017-08-13T10:48:04.881Z,1016.45
2017-08-13T10:49:04.919Z,1016.42
2017-08-13T10:50:04.961Z,1016.46
2017-08-13T10:51:05.000Z,1016.51
2017-08-13T10:52:05.044Z,1016.6
2017-08-13T10:53:05.090Z,1016.67
2017-08-13T10:54:05.247Z,1016.48
2017-08-13T10:55:05.289Z,1016.47
2017-08-13T10:56:05.437Z,1016.46
2017-08-13T10:57:05.481Z,1016.66
2017-08-13T10:58:05.522Z,1016.59
2017-08-13T10:59:05.567Z,1017.47
2017-08-13T11:00:05.736Z,1017.01
2017-08-13T11:01:05.776Z,1016.96
2017-08-13T11:02:05.813Z,1016.65
2017-08-13T11:03:05.855Z,1016.87
2017-08-13T11:04:06.322Z,1016.92
2017-08-13T11:05:06.370Z,1016.91
2017-08-13T11:06:06.406Z,1016.78
2017-08-13T11:07:06.444Z,1016.67
2017-08-13T11:08:06.486Z,1016.61
2017-08-13T11:09:06.964Z,1016.56
2017-08-13T11:10:06.997Z,1016.62
2017-08-13T11:11:07.044Z,1016.58
2017-08-13T11:12:07.085Z,1016.62
2017-08-13T11:13:07.119Z,1016.56
2017-08-13T11:14:07.169Z,1016.64
2017-08-13T11:15:07.203Z,1016.6
2017-08-13T11:16:07.243Z,1016.54
2017-08-13T11:17:07.287Z,1016.62
2017-08-13T11:18:07.323Z,1016.7
2017-08-13T11:19:07.400Z,1016.71
2017-08-13T11:20:07.405Z,1016.59
2017-08-13T11:21:07.448Z,1016.74
2017-08-13T11:22:07.486Z,1016.69
2017-08-13T11:23:07.528Z,1016.63
2017-08-13T11:24:07.572Z,1016.56
2017-08-13T11:25:07.601Z,1016.48
2017-08-13T11:26:07.651Z,1016.51
2017-08-13T11:27:07.688Z,1016.41
2017-08-13T11:28:07.726Z,1016.58
2017-08-13T11:29:07.768Z,1016.55
2017-08-13T11:30:07.807Z,1016.54
2017-08-13T11:31:07.842Z,1016.57
2017-08-13T11:32:07.887Z,1016.41
2017-08-13T11:33:07.927Z,1016.53
2017-08-13T11:34:07.965Z,1016.49
2017-08-13T11:35:08.001Z,1016.49
2017-08-13T11:36:08.043Z,1016.51
2017-08-13T11:37:08.088Z,1016.37
2017-08-13T11:38:08.122Z,1016.38
2017-08-13T11:39:08.167Z,1016.41
2017-08-13T11:40:08.202Z,1016.46
2017-08-13T11:41:08.241Z,1016.41
2017-08-13T11:42:08.719Z,1016.44
2017-08-13T11:43:08.764Z,1016.43
2017-08-13T11:44:08.799Z,1016.43
2017-08-13T11:45:08.834Z,1016.42
2017-08-13T11:46:09.297Z,1016.48
2017-08-13T11:47:09.342Z,1016.49
2017-08-13T11:48:09.380Z,1016.52
2017-08-13T11:49:09.421Z,1016.43
2017-08-13T11:50:09.458Z,1016.42
2017-08-13T11:51:09.500Z,1016.48
2017-08-13T11:52:09.537Z,1016.47
2017-08-13T11:53:09.577Z,1016.47
2017-08-13T11:54:09.618Z,1016.51
2017-08-13T11:55:09.654Z,1016.49
2017-08-13T11:56:10.125Z,1016.5
2017-08-13T11:57:10.160Z,1016.53
2017-08-13T11:58:10.196Z,1016.53
2017-08-13T11:59:10.238Z,1016.5
2017-08-13T12:00:10.284Z,1016.54
2017-08-13T12:01:10.315Z,1016.53
2017-08-13T12:02:10.473Z,1016.53
2017-08-13T12:03:10.393Z,1016.51
2017-08-13T12:04:10.432Z,1016.51
2017-08-13T12:05:10.474Z,1016.56
2017-08-13T12:06:10.664Z,1016.56
2017-08-13T12:07:10.548Z,1016.53
2017-08-13T12:08:10.585Z,1016.6
2017-08-13T12:09:10.626Z,1016.59